Time;durP1;ratioP1;P1;durP2;ratioP2;P2;SDS_P1;SDS_P2;PMS_P1;PMS_P2;Temp;Humidity;BMP_temperature;BMP_pressure;BME280_temperature;BME280_humidity;BME280_pressure;Samples;Min_cycle;Max_cycle;Signal;HPM_P1;HPM_P2
2022/01/20 00:04:13;;;;;;;62.20;42.33;;;;;;;1.10;51.73;100395.03;6307161;22;20003;-78
2022/01/20 00:09:41;;;;;;;57.67;35.67;;;;;;;1.55;51.64;100461.53;6285709;22;20381;-78
2022/01/20 00:23:11;;;;;;;51.67;34.20;;;;;;;1.24;51.45;100412.34;6305945;22;20529;-78
2022/01/20 00:28:27;;;;;;;39.30;26.40;;;;;;;1.45;50.99;100449.19;6308751;22;20022;-78
2022/01/20 00:31:34;;;;;;;;;;;;;;;1.31;51.31;100442.25;6309113;22;20052;-78
2022/01/20 00:33:48;;;;;;;32.70;19.80;;;;;;;0.82;51.07;100358.69;6303452;22;19903;-78
2022/01/20 00:38:43;;;;;;;33.50;21.90;;;;;;;1.26;51.24;100424.31;6309015;22;19999;-78
2022/01/20 00:41:14;;;;;;;28.87;19.80;;;;;;;0.78;51.21;100352.03;6308799;22;20018;-78
2022/01/20 00:43:41;;;;;;;32.80;21.67;;;;;;;1.28;51.00;100440.69;6308822;22;20070;-78
2022/01/20 00:46:07;;;;;;;32.00;21.73;;;;;;;1.13;51.30;100407.84;6308269;22;20342;-78
2022/01/20 00:48:32;;;;;;;38.40;23.23;;;;;;;1.16;51.42;100419.81;6310994;22;19998;-78
2022/01/20 00:50:58;;;;;;;30.33;20.07;;;;;;;1.23;51.24;100429.72;6312518;22;20019;-78
2022/01/20 00:53:23;;;;;;;27.50;19.57;;;;;;;0.81;51.50;100370.03;6312488;22;19994;-78
2022/01/20 00:55:49;;;;;;;31.20;19.97;;;;;;;0.70;51.47;100355.06;6313363;22;20045;-78
2022/01/20 00:58:14;;;;;;;29.87;18.90;;;;;;;0.52;51.50;100327.63;6313572;22;20002;-78
2022/01/20 01:00:39;;;;;;;29.70;19.63;;;;;;;-0.02;51.69;100231.38;6314057;22;20022;-78
2022/01/20 01:03:05;;;;;;;33.30;20.57;;;;;;;0.73;51.49;100352.28;6311247;22;20000;-78
2022/01/20 01:05:33;;;;;;;31.83;20.37;;;;;;;1.17;51.28;100406.72;6307796;22;20433;-78
2022/01/20 01:07:58;;;;;;;29.63;21.03;;;;;;;0.68;51.57;100332.69;6308225;22;20006;-78
2022/01/20 01:10:30;;;;;;;31.77;20.27;;;;;;;1.20;51.69;100400.47;6308864;22;20436;-78
2022/01/20 01:13:04;;;;;;;31.83;21.83;;;;;;;1.20;51.38;100398.72;6307992;22;20475;-78
2022/01/20 01:15:35;;;;;;;31.70;21.00;;;;;;;1.22;51.40;100393.41;6308083;22;20395;-78
2022/01/20 01:23:36;;;;;;;35.27;22.57;;;;;;;1.19;51.51;100386.63;6308042;22;20522;-78
2022/01/20 01:26:04;;;;;;;32.40;20.33;;;;;;;1.08;51.72;100380.44;6307441;22;20360;-78
2022/01/20 01:28:31;;;;;;;32.77;21.37;;;;;;;1.20;51.75;100390.06;6307347;22;19999;-78
2022/01/20 01:33:51;;;;;;;35.93;23.57;;;;;;;0.23;51.90;100239.34;6307744;22;20010;-78
2022/01/20 01:36:20;;;;;;;35.17;23.07;;;;;;;0.48;51.83;100264.63;6307752;22;20002;-78
2022/01/20 01:38:47;;;;;;;38.03;26.47;;;;;;;0.45;51.63;100256.19;6307379;22;20003;-78
2022/01/20 01:41:17;;;;;;;36.57;24.73;;;;;;;1.16;51.56;100370.38;6307697;22;20003;-78
2022/01/20 01:43:46;;;;;;;35.70;24.13;;;;;;;0.70;51.77;100286.66;6307674;22;19995;-78
2022/01/20 01:46:14;;;;;;;37.60;25.10;;;;;;;1.17;51.71;100367.69;6307381;22;20015;-78
2022/01/20 01:48:41;;;;;;;37.73;25.83;;;;;;;1.13;51.61;100353.22;6307441;22;19995;-78
2022/01/20 01:51:07;;;;;;;45.57;28.93;;;;;;;0.77;51.44;100299.19;6307798;22;20427;-78
2022/01/20 01:53:33;;;;;;;41.13;27.83;;;;;;;0.84;51.52;100304.84;6307288;22;20066;-78
2022/01/20 01:55:59;;;;;;;49.50;32.33;;;;;;;0.62;51.89;100276.75;6307468;22;20019;-78
2022/01/20 01:58:24;;;;;;;47.97;32.13;;;;;;;0.78;51.76;100313.88;6307473;22;20029;-78
2022/01/20 02:00:50;;;;;;;49.80;31.40;;;;;;;0.37;51.86;100229.88;6307743;22;19999;-78
2022/01/20 02:03:16;;;;;;;46.73;29.90;;;;;;;0.80;51.73;100312.00;6310219;22;20002;-78
2022/01/20 02:06:02;;;;;;;43.53;26.93;;;;;;;0.91;51.90;100342.50;6314129;22;20371;-78
2022/01/20 02:19:14;;;;;;;33.38;21.85;;;;;;;0.47;51.86;100264.72;6308054;22;20006;-78
2022/01/20 02:21:49;;;;;;;34.70;23.27;;;;;;;0.93;52.00;100318.09;6307237;22;20018;-78
2022/01/20 02:24:15;;;;;;;37.77;23.80;;;;;;;0.60;51.88;100273.41;6280027;22;20074;-78
2022/01/20 02:26:41;;;;;;;35.13;22.80;;;;;;;0.98;52.03;100319.56;6307582;22;20003;-78
2022/01/20 02:29:07;;;;;;;34.73;22.47;;;;;;;0.35;51.75;100209.19;6307470;22;20006;-78
2022/01/20 02:31:32;;;;;;;29.67;21.33;;;;;;;0.97;52.09;100316.13;6307177;22;20052;-78
2022/01/20 02:33:58;;;;;;;29.10;19.13;;;;;;;0.84;52.04;100289.25;6307176;22;19995;-78
2022/01/20 02:36:24;;;;;;;34.10;20.97;;;;;;;0.44;52.08;100228.53;6307605;22;20471;-78
2022/01/20 02:38:56;;;;;;;37.67;22.17;;;;;;;0.89;52.08;100298.41;6308060;22;19999;-78
2022/01/20 02:46:50;;;;;;;30.10;18.83;;;;;;;0.46;52.27;100240.50;6307735;22;20038;-78
2022/01/20 02:49:17;;;;;;;25.50;17.43;;;;;;;0.38;51.79;100209.00;6280601;22;20433;-78
2022/01/20 02:51:50;;;;;;;22.53;16.33;;;;;;;0.83;51.74;100284.97;6307703;22;20444;-78
2022/01/20 02:54:16;;;;;;;22.33;15.27;;;;;;;0.73;51.86;100263.91;6307546;22;19995;-78
2022/01/20 02:56:42;;;;;;;24.20;16.87;;;;;;;0.76;52.02;100260.31;6307585;22;20011;-78
2022/01/20 02:59:07;;;;;;;30.30;18.17;;;;;;;0.92;52.17;100302.59;6308565;22;19995;-78
2022/01/20 03:01:33;;;;;;;25.30;18.20;;;;;;;0.67;51.98;100248.72;6308928;22;20070;-78
2022/01/20 03:04:00;;;;;;;26.70;18.23;;;;;;;0.89;52.04;100298.41;6309036;22;20007;-78
2022/01/20 03:06:26;;;;;;;28.80;18.43;;;;;;;0.67;52.34;100248.72;6308528;22;20006;-78
2022/01/20 03:08:51;;;;;;;25.37;17.03;;;;;;;0.61;52.10;100241.31;6309219;22;19999;-78
2022/01/20 03:11:16;;;;;;;24.87;17.27;;;;;;;0.88;52.03;100281.16;6308790;22;19995;-78
2022/01/20 03:13:42;;;;;;;28.50;17.40;;;;;;;0.48;52.07;100204.88;6308456;22;19996;-78
2022/01/20 03:16:07;;;;;;;32.20;20.93;;;;;;;0.56;51.96;100227.78;6281520;22;20035;-78
2022/01/20 03:18:33;;;;;;;33.17;21.03;;;;;;;0.90;52.16;100268.06;6312812;22;19999;-78
2022/01/20 03:20:59;;;;;;;39.57;25.00;;;;;;;0.46;52.42;100211.09;6314794;22;19994;-78
2022/01/20 03:23:24;;;;;;;37.13;22.37;;;;;;;0.85;52.42;100264.91;6315307;22;20017;-78
2022/01/20 03:25:49;;;;;;;28.73;19.73;;;;;;;0.34;52.29;100184.13;6314767;22;20011;-78
2022/01/20 03:28:15;;;;;;;32.70;22.27;;;;;;;0.32;52.48;100179.03;6315387;22;19995;-78
2022/01/20 03:30:40;;;;;;;33.67;21.77;;;;;;;0.85;52.24;100249.31;6288117;22;20018;-78
2022/01/20 03:33:06;;;;;;;28.87;19.10;;;;;;;0.47;52.38;100200.63;6284951;22;20380;-78
2022/01/20 03:35:31;;;;;;;27.57;19.10;;;;;;;0.78;52.14;100246.28;6308421;22;20330;-78
2022/01/20 03:37:58;;;;;;;28.37;18.73;;;;;;;-0.02;52.70;100136.16;6309415;22;19995;-78
2022/01/20 03:40:23;;;;;;;30.73;20.17;;;;;;;0.74;52.29;100244.78;6308628;22;20118;-78
2022/01/20 03:42:49;;;;;;;30.20;19.97;;;;;;;0.77;52.32;100243.78;6306650;22;19999;-78
2022/01/20 03:45:15;;;;;;;30.47;20.30;;;;;;;0.78;52.37;100245.44;6306137;22;20080;-78
2022/01/20 03:47:42;;;;;;;30.60;20.60;;;;;;;0.72;52.58;100241.44;6306363;22;20464;-78
2022/01/20 03:50:59;;;;;;;30.57;19.60;;;;;;;0.41;52.54;100201.00;6279890;22;20003;-78
2022/01/20 03:52:53;;;;;;;30.07;20.83;;;;;;;0.58;52.71;100231.09;6307313;22;20006;-78
2022/01/20 03:55:18;;;;;;;34.13;20.30;;;;;;;0.66;52.56;100235.81;6306756;22;19995;-78
2022/01/20 03:57:44;;;;;;;34.50;21.93;;;;;;;0.28;52.80;100163.75;6279345;22;19999;-78
2022/01/20 04:00:11;;;;;;;35.87;21.90;;;;;;;0.35;52.76;100174.59;6306740;22;20007;-78
2022/01/20 04:02:36;;;;;;;30.93;20.70;;;;;;;0.09;52.67;100150.28;6281352;22;20005;-78
2022/01/20 04:05:02;;;;;;;32.53;19.63;;;;;;;0.51;53.07;100207.28;6315006;22;20082;-78
2022/01/20 04:07:27;;;;;;;24.13;16.80;;;;;;;0.14;52.75;100156.84;6316013;22;20022;-78
2022/01/20 04:09:53;;;;;;;30.57;19.63;;;;;;;0.12;53.11;100157.88;6319787;22;19999;-78
2022/01/20 04:12:18;;;;;;;33.47;21.53;;;;;;;0.59;52.79;100230.16;6320293;22;20003;-78
2022/01/20 04:14:48;;;;;;;30.20;20.03;;;;;;;0.03;52.83;100124.69;6293249;22;20023;-78
2022/01/20 04:17:18;;;;;;;31.83;19.60;;;;;;;0.29;53.15;100170.63;6311944;22;19995;-78
2022/01/20 04:19:44;;;;;;;32.47;19.80;;;;;;;0.07;52.97;100147.78;6312202;22;20019;-78
2022/01/20 04:22:10;;;;;;;28.43;19.13;;;;;;;0.53;53.14;100225.38;6313509;22;20021;-78
2022/01/20 04:24:37;;;;;;;33.87;21.43;;;;;;;-0.12;52.88;100111.72;6313623;22;19999;-78
2022/01/20 04:27:03;;;;;;;33.30;21.77;;;;;;;0.59;53.10;100232.78;6285885;22;19999;-78
2022/01/20 04:29:29;;;;;;;34.53;23.93;;;;;;;0.21;53.01;100146.91;6313527;22;20003;-78
2022/01/20 04:31:55;;;;;;;37.00;23.43;;;;;;;-0.01;52.77;100116.25;6313547;22;19999;-78
2022/01/20 04:34:20;;;;;;;37.97;24.40;;;;;;;0.63;52.84;100211.69;6280710;22;20061;-78
2022/01/20 04:36:48;;;;;;;54.23;30.80;;;;;;;0.03;52.92;100122.09;6307782;22;19991;-78
2022/01/20 04:39:18;;;;;;;49.83;29.90;;;;;;;0.31;52.63;100169.59;6307752;22;19999;-78
2022/01/20 04:41:44;;;;;;;56.17;35.30;;;;;;;0.29;52.47;100168.03;6307824;22;20004;-78
2022/01/20 04:44:17;;;;;;;58.43;36.27;;;;;;;0.66;52.76;100220.22;6307835;22;19995;-78
2022/01/20 04:46:55;;;;;;;57.40;34.27;;;;;;;0.43;52.88;100196.53;6307182;22;20019;-78
2022/01/20 04:57:32;;;;;;;55.13;33.93;;;;;;;0.12;52.65;100137.09;6307177;22;20010;-78
2022/01/20 04:59:57;;;;;;;51.10;32.53;;;;;;;0.59;52.97;100236.19;6307338;22;20031;-78
2022/01/20 05:02:26;;;;;;;52.53;34.47;;;;;;;-0.08;52.89;100117.56;6307031;22;20022;-78
2022/01/20 05:04:52;;;;;;;58.23;35.43;;;;;;;0.56;52.94;100218.22;6306209;22;20003;-78
2022/01/20 05:07:22;;;;;;;58.03;38.90;;;;;;;0.31;52.53;100192.13;6281149;22;20003;-78
2022/01/20 05:09:48;;;;;;;62.47;40.87;;;;;;;0.13;52.80;100142.19;6309406;22;20356;-78
2022/01/20 05:12:17;;;;;;;59.43;41.30;;;;;;;-0.22;52.92;100084.69;6309221;22;20048;-78
2022/01/20 05:14:43;;;;;;;62.47;42.83;;;;;;;0.53;52.88;100210.63;6309156;22;19999;-78
2022/01/20 05:17:08;;;;;;;63.10;43.37;;;;;;;0.04;52.99;100128.97;6281474;22;20078;-78
2022/01/20 05:19:34;;;;;;;66.37;44.47;;;;;;;0.42;52.70;100197.47;6309010;22;20026;-78
2022/01/20 05:22:00;;;;;;;69.30;47.03;;;;;;;0.33;53.00;100172.09;6308870;22;19999;-78
2022/01/20 05:24:25;;;;;;;67.53;46.57;;;;;;;0.47;53.15;100198.00;6309482;22;19995;-78
2022/01/20 05:26:53;;;;;;;77.30;52.23;;;;;;;0.48;53.02;100198.84;6281755;22;20006;-78
2022/01/20 05:29:19;;;;;;;77.00;51.50;;;;;;;0.25;53.08;100179.53;6309127;22;20000;-78
2022/01/20 05:31:45;;;;;;;78.87;53.23;;;;;;;0.45;53.05;100207.66;6309400;22;20078;-78
2022/01/20 05:34:10;;;;;;;75.20;51.07;;;;;;;0.40;53.18;100203.69;6309103;22;20453;-78
2022/01/20 05:36:36;;;;;;;75.83;52.47;;;;;;;0.08;52.85;100175.41;6309221;22;20015;-78
2022/01/20 05:39:03;;;;;;;68.93;48.23;;;;;;;0.07;52.83;100170.31;6308836;22;20410;-78
2022/01/20 05:41:29;;;;;;;65.23;41.37;;;;;;;0.04;52.85;100165.31;6281431;22;20056;-78
2022/01/20 05:43:56;;;;;;;68.67;42.50;;;;;;;-0.19;53.21;100149.38;6308485;22;20066;-78
2022/01/20 05:46:24;;;;;;;71.93;47.63;;;;;;;0.09;52.77;100208.22;6280771;22;20011;-78
2022/01/20 05:48:50;;;;;;;79.57;50.43;;;;;;;-0.04;53.16;100157.97;6308902;22;20067;-78
2022/01/20 05:51:17;;;;;;;73.20;44.60;;;;;;;-0.25;52.91;100138.53;6281597;22;20019;-78
2022/01/20 05:53:42;;;;;;;66.07;43.67;;;;;;;-0.14;52.88;100162.91;6308717;22;20062;-78
2022/01/20 05:56:08;;;;;;;71.40;48.53;;;;;;;-0.33;52.89;100147.63;6308093;22;20440;-78
2022/01/20 05:58:36;;;;;;;90.13;58.87;;;;;;;-0.68;52.91;100084.13;6308382;22;19995;-78
2022/01/20 06:01:07;;;;;;;85.57;55.70;;;;;;;0.07;52.73;100196.25;6308013;22;19995;-78
2022/01/20 06:03:36;;;;;;;78.23;53.10;;;;;;;0.07;52.85;100199.69;6308437;22;20062;-78
2022/01/20 06:06:07;;;;;;;78.67;53.20;;;;;;;-0.35;52.43;100148.66;6308074;22;20003;-78
2022/01/20 06:08:34;;;;;;;81.53;54.00;;;;;;;-0.08;53.15;100204.03;6308332;22;20006;-78
2022/01/20 06:10:59;;;;;;;112.73;71.33;;;;;;;-0.40;53.14;100174.03;6307615;22;20002;-78
2022/01/20 06:13:26;;;;;;;102.67;68.87;;;;;;;-0.84;53.21;100130.84;6308086;22;20353;-78
2022/01/20 06:15:51;;;;;;;107.40;66.63;;;;;;;-0.38;53.19;100190.34;6308188;22;20437;-78
2022/01/20 06:18:17;;;;;;;95.90;64.13;;;;;;;-1.04;53.21;100094.91;6311385;22;19995;-78
2022/01/20 06:20:43;;;;;;;102.40;64.37;;;;;;;-0.68;53.45;100147.19;6315144;22;20015;-78
2022/01/20 06:23:10;;;;;;;88.23;56.17;;;;;;;-0.29;52.97;100200.16;6314753;22;19995;-78
2022/01/20 06:25:37;;;;;;;93.70;55.93;;;;;;;-0.29;52.70;100205.34;6313528;22;20062;-78
2022/01/20 06:28:03;;;;;;;100.00;60.33;;;;;;;-0.73;52.96;100132.81;6314788;22;20448;-78
2022/01/20 06:30:31;;;;;;;111.40;62.33;;;;;;;-0.26;52.88;100199.16;6314152;22;20006;-78
2022/01/20 06:32:56;;;;;;;106.17;60.50;;;;;;;-0.38;53.02;100178.22;6309772;22;19999;-78
2022/01/20 06:35:22;;;;;;;107.07;59.93;;;;;;;-0.67;53.25;100133.28;6307759;22;20326;-78
2022/01/20 06:37:48;;;;;;;113.40;63.83;;;;;;;-0.41;52.50;100168.03;6307530;22;19999;-78
2022/01/20 06:40:13;;;;;;;116.87;64.83;;;;;;;-0.12;53.08;100205.16;6307073;22;20003;-78
2022/01/20 06:42:40;;;;;;;107.23;58.73;;;;;;;-0.05;52.75;100201.25;6306995;22;20025;-78
2022/01/20 06:45:08;;;;;;;101.27;57.37;;;;;;;-0.47;52.67;100124.28;6279780;22;20079;-78
2022/01/20 06:47:33;;;;;;;99.20;58.67;;;;;;;0.09;52.61;100215.19;6274669;22;20019;-78
2022/01/20 06:50:00;;;;;;;88.17;55.73;;;;;;;0.14;52.67;100200.16;6276248;22;20006;-78
2022/01/20 06:52:26;;;;;;;93.53;56.77;;;;;;;0.19;52.37;100226.66;6275783;22;19995;-78
2022/01/20 06:54:51;;;;;;;76.90;50.93;;;;;;;0.11;51.94;100184.75;6276071;22;20000;-78
2022/01/20 06:57:17;;;;;;;83.97;52.03;;;;;;;-0.22;52.32;100128.81;6276168;22;20094;-78
2022/01/20 06:59:42;;;;;;;94.80;57.00;;;;;;;0.24;52.01;100203.84;6276227;22;20326;-78
2022/01/20 07:02:08;;;;;;;72.00;47.03;;;;;;;0.20;52.25;100202.34;6276323;22;20097;-78
2022/01/20 07:04:34;;;;;;;57.07;39.03;;;;;;;0.08;52.25;100171.97;6274843;22;20000;-78
2022/01/20 07:06:59;;;;;;;55.63;39.47;;;;;;;0.21;52.03;100207.44;6274929;22;20010;-78
2022/01/20 07:09:25;;;;;;;60.83;39.30;;;;;;;-0.14;52.24;100156.88;6275157;22;20025;-78
2022/01/20 07:11:51;;;;;;;54.77;34.27;;;;;;;-0.27;52.45;100137.78;6274852;22;20007;-78
2022/01/20 07:14:16;;;;;;;51.83;32.03;;;;;;;0.30;52.36;100224.22;6275835;22;20003;-78
2022/01/20 07:16:42;;;;;;;47.50;30.93;;;;;;;0.07;52.39;100183.28;6275907;22;19999;-78
2022/01/20 07:19:07;;;;;;;44.43;27.50;;;;;;;-0.03;52.29;100160.47;6273840;22;20007;-78
2022/01/20 07:21:33;;;;;;;47.60;30.70;;;;;;;0.22;52.90;100196.13;6275599;22;20067;-78
2022/01/20 07:23:58;;;;;;;42.07;26.93;;;;;;;0.44;52.43;100215.56;6274811;22;20000;-78
2022/01/20 07:26:24;;;;;;;46.03;30.00;;;;;;;-0.29;52.68;100153.47;6274374;22;19999;-78
2022/01/20 07:28:49;;;;;;;53.83;32.97;;;;;;;0.41;52.42;100218.34;6275902;22;19996;-78
2022/01/20 07:31:16;;;;;;;53.67;32.83;;;;;;;-0.35;52.74;100086.38;6274120;22;20007;-78
2022/01/20 07:33:42;;;;;;;46.27;29.67;;;;;;;0.48;52.73;100206.63;6272014;22;20002;-78
2022/01/20 07:36:08;;;;;;;42.00;29.50;;;;;;;0.10;52.49;100164.91;6273002;22;20378;-78
2022/01/20 07:38:33;;;;;;;45.13;27.47;;;;;;;0.07;52.53;100111.44;6271924;22;20007;-78
2022/01/20 07:40:59;;;;;;;45.53;29.20;;;;;;;0.31;52.59;100128.03;6276375;22;20074;-78
2022/01/20 07:43:24;;;;;;;48.70;29.53;;;;;;;0.41;52.20;100128.28;6274792;22;20079;-78
2022/01/20 07:45:50;;;;;;;43.87;26.97;;;;;;;0.87;52.18;100193.69;6280974;22;20364;-78
2022/01/20 07:48:15;;;;;;;44.33;28.43;;;;;;;0.58;52.49;100156.59;6305719;22;19999;-78
2022/01/20 07:50:40;;;;;;;39.90;26.83;;;;;;;0.58;52.12;100122.81;6304345;22;20325;-78
2022/01/20 07:53:06;;;;;;;39.07;27.03;;;;;;;0.97;51.87;100173.13;6305995;22;20074;-78
2022/01/20 07:55:32;;;;;;;40.50;27.33;;;;;;;1.04;52.03;100176.97;6306056;22;19992;-78
2022/01/20 07:57:58;;;;;;;42.10;27.97;;;;;;;1.28;51.96;100190.13;6308413;22;19999;-78
2022/01/20 08:00:24;;;;;;;46.20;29.63;;;;;;;0.92;51.91;100128.41;6307186;22;20437;-78
2022/01/20 08:02:50;;;;;;;42.33;29.23;;;;;;;1.41;51.63;100188.34;6306835;22;19995;-78
2022/01/20 08:05:15;;;;;;;44.07;29.73;;;;;;;1.11;51.76;100123.63;6305236;22;19999;-78
2022/01/20 08:07:41;;;;;;;51.00;31.33;;;;;;;1.25;51.60;100151.31;6304996;22;19999;-78
2022/01/20 08:10:07;;;;;;;54.60;30.27;;;;;;;1.16;51.35;100118.94;6276586;22;20006;-78
2022/01/20 08:12:33;;;;;;;47.53;29.83;;;;;;;1.48;51.58;100162.75;6301603;22;19999;-78
2022/01/20 08:14:59;;;;;;;47.97;30.87;;;;;;;1.65;51.32;100164.22;6276728;22;20345;-79
2022/01/20 08:17:25;;;;;;;48.13;30.27;;;;;;;1.99;51.14;100179.16;6277955;22;20348;-78
2022/01/20 08:19:51;;;;;;;48.20;32.57;;;;;;;1.77;51.29;100132.13;6305266;22;19999;-78
2022/01/20 08:22:17;;;;;;;43.20;30.97;;;;;;;1.81;50.91;100129.19;6277977;22;19999;-78
2022/01/20 08:24:42;;;;;;;48.03;31.80;;;;;;;1.77;50.91;100111.28;6306626;22;20576;-78
2022/01/20 08:27:11;;;;;;;45.57;30.67;;;;;;;1.76;50.82;100109.63;6306531;22;20377;-78
2022/01/20 08:29:37;;;;;;;45.60;30.23;;;;;;;1.83;50.67;100106.50;6305207;22;19999;-79
2022/01/20 08:32:04;;;;;;;47.97;31.60;;;;;;;2.46;50.52;100181.00;6304812;22;19999;-78
2022/01/20 08:34:29;;;;;;;69.20;38.97;;;;;;;2.09;50.74;100111.59;6305567;22;20462;-78
2022/01/20 08:36:55;;;;;;;71.37;35.30;;;;;;;2.39;50.49;100150.28;6306079;22;19996;-78
2022/01/20 08:41:53;;;;;;;48.30;31.67;;;;;;;2.54;50.33;100157.81;6308889;22;20003;-78
2022/01/20 08:44:19;;;;;;;52.77;34.87;;;;;;;2.43;50.17;100134.31;6281237;22;20132;-79
2022/01/20 08:46:47;;;;;;;52.20;33.70;;;;;;;2.57;50.14;100127.25;6309082;22;20011;-79
2022/01/20 08:49:12;;;;;;;52.67;34.40;;;;;;;2.58;49.94;100119.31;6308888;22;20056;-79
2022/01/20 08:51:39;;;;;;;50.23;34.67;;;;;;;2.80;50.25;100161.13;6308791;22;19996;-79
2022/01/20 08:54:05;;;;;;;54.70;33.43;;;;;;;3.09;50.39;100229.41;6279729;22;19999;-79
2022/01/20 08:56:34;;;;;;;52.73;33.57;;;;;;;2.75;50.13;100118.91;6306641;22;20010;-79
2022/01/20 08:59:00;;;;;;;48.13;32.93;;;;;;;2.97;50.16;100136.38;6306859;22;20006;-79
2022/01/20 09:01:26;;;;;;;53.47;36.57;;;;;;;2.92;50.08;100117.63;6283203;22;20026;-79
2022/01/20 09:03:51;;;;;;;73.73;47.33;;;;;;;2.41;49.71;100007.66;6308881;22;20021;-79
2022/01/20 09:06:16;;;;;;;86.10;56.30;;;;;;;1.78;49.45;99905.53;6279332;22;20600;-79
2022/01/20 09:08:42;;;;;;;72.77;44.37;;;;;;;2.78;49.43;100056.09;6279328;22;20071;-78
2022/01/20 09:11:18;;;;;;;62.87;40.50;;;;;;;2.73;49.05;100032.16;6280692;22;20082;-79
2022/01/20 09:16:29;;;;;;;47.80;31.70;;;;;;;3.31;49.36;100121.63;6308011;22;20514;-79
2022/01/20 09:18:54;;;;;;;42.93;29.53;;;;;;;3.69;49.02;100176.13;6279565;22;19999;-78
2022/01/20 09:21:22;;;;;;;41.23;29.23;;;;;;;3.16;48.32;100096.72;6305914;22;20518;-78
2022/01/20 09:23:48;;;;;;;46.00;28.83;;;;;;;3.60;48.44;100140.28;6277000;22;20003;-79
2022/01/20 09:26:14;;;;;;;149.40;40.10;;;;;;;3.92;48.27;100181.38;6303116;22;20013;-78
2022/01/20 09:28:42;;;;;;;63.73;29.20;;;;;;;4.00;47.52;100151.06;6304949;22;20445;-78
2022/01/20 09:31:08;;;;;;;47.33;26.63;;;;;;;3.64;47.47;100091.25;6280905;22;20002;-78
2022/01/20 09:33:34;;;;;;;55.33;31.83;;;;;;;4.17;47.52;100136.66;6278810;22;19999;-78
2022/01/20 09:36:00;;;;;;;67.83;29.10;;;;;;;3.68;47.50;100036.06;6308088;22;20049;-79
2022/01/20 09:38:27;;;;;;;66.27;30.57;;;;;;;3.48;47.20;100015.91;6326821;22;20014;-78
2022/01/20 09:40:53;;;;;;;72.20;31.70;;;;;;;4.17;46.96;100070.50;6332287;22;20055;-77
2022/01/20 09:43:20;;;;;;;39.23;24.80;;;;;;;4.50;46.62;100120.06;6304930;22;19995;-78
2022/01/20 09:45:50;;;;;;;39.27;25.37;;;;;;;4.60;46.59;100114.91;6333141;22;20011;-79
2022/01/20 09:48:16;;;;;;;43.07;25.03;;;;;;;4.35;46.25;100058.53;6322485;22;20030;-78
2022/01/20 09:50:42;;;;;;;42.03;24.93;;;;;;;4.21;46.15;100002.19;6306214;22;19995;-78
2022/01/20 09:53:07;;;;;;;42.17;26.27;;;;;;;4.49;45.64;100033.91;6304829;22;20006;-78
2022/01/20 09:55:35;;;;;;;58.57;37.03;;;;;;;5.01;45.73;100077.47;6278363;22;20122;-78
2022/01/20 09:58:02;;;;;;;51.50;37.47;;;;;;;4.51;45.42;99979.69;6278479;22;20009;-78
2022/01/20 10:00:27;;;;;;;39.83;28.40;;;;;;;5.00;45.47;100033.94;6278960;22;20000;-78
2022/01/20 10:03:06;;;;;;;50.70;30.30;;;;;;;4.88;45.36;100003.56;6306503;22;19999;-78
2022/01/20 10:05:35;;;;;;;57.63;33.90;;;;;;;5.39;45.04;100056.72;6306135;22;20003;-78
2022/01/20 10:08:13;;;;;;;52.90;32.87;;;;;;;5.03;44.73;99982.16;6278012;22;20056;-78
2022/01/20 10:10:53;;;;;;;44.07;29.37;;;;;;;5.54;44.54;100046.72;6303909;22;20006;-78
2022/01/20 10:13:22;;;;;;;37.83;24.50;;;;;;;5.54;44.60;100023.13;6278227;22;19999;-78
2022/01/20 10:16:03;;;;;;;71.17;51.33;;;;;;;5.43;44.44;99983.97;6304455;22;20613;-77
2022/01/20 10:18:31;;;;;;;46.80;26.97;;;;;;;5.83;44.47;100032.84;6303342;22;19995;-78
2022/01/20 10:21:04;;;;;;;40.03;25.43;;;;;;;5.88;44.36;100035.88;6303565;22;19999;-77
2022/01/20 10:23:35;;;;;;;44.67;28.80;;;;;;;5.34;44.50;99935.84;6280402;22;20045;-78
2022/01/20 10:26:24;;;;;;;36.27;25.73;;;;;;;5.90;44.09;99990.25;6278123;22;20006;-79
2022/01/20 10:28:58;;;;;;;37.90;24.63;;;;;;;5.68;43.93;99949.41;6282746;22;20084;-79
2022/01/20 10:31:54;;;;;;;30.50;21.30;;;;;;;6.00;43.81;99979.81;6302418;22;20071;-79
2022/01/20 10:34:28;;;;;;;38.77;24.80;;;;;;;6.02;43.84;99976.09;6272129;22;20076;-76
2022/01/20 10:36:55;;;;;;;31.70;22.33;;;;;;;6.28;43.82;100005.19;6305540;22;19995;-77
2022/01/20 10:39:42;;;;;;;32.70;23.07;;;;;;;6.37;43.64;99986.00;6305558;22;20357;-80
2022/01/20 10:42:10;;;;;;;34.50;20.53;;;;;;;6.42;43.29;99980.31;6303868;22;19995;-79
2022/01/20 10:44:53;;;;;;;28.87;20.87;;;;;;;6.47;43.01;99979.91;6277531;22;19999;-77
2022/01/20 10:47:21;;;;;;;35.77;24.63;;;;;;;5.94;43.53;99899.91;6305661;22;20073;-77
2022/01/20 10:49:48;;;;;;;34.73;24.20;;;;;;;6.43;43.52;99936.56;6305731;22;19996;-77
2022/01/20 10:52:18;;;;;;;31.03;22.63;;;;;;;6.68;43.08;99967.44;6303393;22;20003;-79
2022/01/20 10:54:49;;;;;;;33.67;24.13;;;;;;;6.73;43.29;99957.34;6300114;22;20068;-76
2022/01/20 10:57:16;;;;;;;28.13;19.87;;;;;;;6.57;42.68;99918.56;6304759;22;19999;-78
2022/01/20 10:59:53;;;;;;;34.03;20.13;;;;;;;6.76;42.51;99938.69;6303118;22;20229;-77
2022/01/20 11:02:22;;;;;;;34.17;22.07;;;;;;;6.54;43.02;99899.66;6277444;22;20007;-77
2022/01/20 11:04:49;;;;;;;29.00;20.80;;;;;;;6.85;42.54;99918.63;6304199;22;20464;-77
2022/01/20 11:07:15;;;;;;;29.97;19.87;;;;;;;6.92;43.12;99932.84;6304359;22;20053;-79
2022/01/20 11:09:43;;;;;;;42.63;22.03;;;;;;;6.55;42.40;99865.44;6302307;22;20006;-78
2022/01/20 11:12:14;;;;;;;29.90;19.20;;;;;;;6.50;42.52;99864.19;6305613;22;20027;-77
2022/01/20 11:14:41;;;;;;;22.17;16.27;;;;;;;6.90;41.84;99924.28;6278210;22;20003;-78
2022/01/20 11:17:07;;;;;;;26.10;16.13;;;;;;;6.88;41.50;99921.81;6305455;22;20349;-77
2022/01/20 11:19:36;;;;;;;20.10;13.73;;;;;;;6.57;41.83;99839.03;6304617;22;20003;-78
2022/01/20 11:22:12;;;;;;;12.97;7.97;;;;;;;6.74;40.74;99859.28;6304900;22;20003;-78
2022/01/20 11:24:39;;;;;;;15.10;9.33;;;;;;;7.08;41.43;99892.81;6305471;22;20060;-88
2022/01/20 11:27:07;;;;;;;16.83;7.27;;;;;;;7.13;40.86;99890.56;6276120;22;20474;-88
2022/01/20 11:29:46;;;;;;;10.80;6.80;;;;;;;7.16;39.66;99882.41;6304755;22;20456;-87
2022/01/20 11:32:23;;;;;;;12.83;7.30;;;;;;;6.89;40.04;99828.13;6304978;22;20444;-88
2022/01/20 11:34:59;;;;;;;10.10;5.77;;;;;;;7.28;39.65;99860.22;6305722;22;20364;-89
2022/01/20 11:37:26;;;;;;;8.07;4.40;;;;;;;7.20;40.52;99839.13;6305511;22;20002;-91
2022/01/20 11:40:16;;;;;;;6.87;4.77;;;;;;;7.03;39.24;99811.88;6278296;22;20060;-88
2022/01/20 11:42:55;;;;;;;12.10;5.63;;;;;;;7.26;39.81;99818.34;6305323;22;20417;-90
2022/01/20 11:45:28;;;;;;;5.03;3.70;;;;;;;7.48;39.12;99851.25;6305260;22;20007;-90
2022/01/20 11:47:54;;;;;;;6.87;3.60;;;;;;;7.37;39.33;99812.03;6305621;22;20019;-90
2022/01/20 11:50:20;;;;;;;7.07;3.70;;;;;;;7.42;39.00;99814.22;6305909;22;20048;-90
2022/01/20 11:52:46;;;;;;;5.47;2.73;;;;;;;7.53;38.96;99824.50;6277728;22;19999;-90
2022/01/20 11:55:16;;;;;;;6.97;4.10;;;;;;;7.69;37.91;99831.69;6305815;22;20070;-88
2022/01/20 11:57:42;;;;;;;34.23;6.93;;;;;;;7.44;37.92;99793.91;6278607;22;20029;-84
2022/01/20 12:00:25;;;;;;;3.23;2.20;;;;;;;7.76;37.23;99823.06;6305578;22;20459;-88
2022/01/20 12:02:51;;;;;;;7.90;4.70;;;;;;;7.49;37.72;99771.44;6277860;22;20182;-89
2022/01/20 12:05:27;;;;;;;8.93;3.97;;;;;;;7.63;37.64;99799.78;6304852;22;20765;-88
2022/01/20 12:08:18;;;;;;;6.67;3.97;;;;;;;7.87;36.53;99824.59;6304671;22;20338;-88
2022/01/20 12:11:16;;;;;;;6.10;3.40;;;;;;;7.93;36.38;99813.47;6277669;22;20345;-88
2022/01/20 12:13:54;;;;;;;8.83;3.70;;;;;;;7.94;36.62;99809.88;6304047;22;20003;-88
2022/01/20 12:16:22;;;;;;;7.17;3.17;;;;;;;7.69;37.29;99766.81;6305752;22;20349;-88
2022/01/20 12:18:52;;;;;;;37.63;7.40;;;;;;;7.85;36.72;99801.09;6307685;22;20041;-88
2022/01/20 12:21:19;;;;;;;17.27;5.40;;;;;;;7.97;36.99;99809.56;6307300;22;19999;-88
2022/01/20 12:23:46;;;;;;;5.17;3.30;;;;;;;7.89;36.87;99806.88;6307551;22;19996;-76